sensor_id;sensor_type;location;lat;lon;timestamp;temperature;humidity
16247;DHT22;8231;50.866;7.944;2022-09-11T00:01:30;15.20;99.90
16247;DHT22;8231;50.866;7.944;2022-09-11T00:03:59;15.20;99.90
16247;DHT22;8231;50.866;7.944;2022-09-11T00:06:29;15.10;99.90
16247;DHT22;8231;50.866;7.944;2022-09-11T00:08:59;15.20;99.90
16247;DHT22;8231;50.866;7.944;2022-09-11T00:11:30;15.10;99.90
16247;DHT22;8231;50.866;7.944;2022-09-11T00:13:58;15.10;99.90
16247;DHT22;8231;50.866;7.944;2022-09-11T00:16:29;15.30;99.90
16247;DHT22;8231;50.866;7.944;2022-09-11T00:19:03;15.10;99.90
16247;DHT22;8231;50.866;7.944;2022-09-11T00:21:33;15.10;99.90
16247;DHT22;8231;50.866;7.944;2022-09-11T00:24:02;15.10;99.90
16247;DHT22;8231;50.866;7.944;2022-09-11T00:26:30;15.10;99.90
16247;DHT22;8231;50.866;7.944;2022-09-11T00:28:59;15.10;99.90
16247;DHT22;8231;50.866;7.944;2022-09-11T00:31:28;15.00;99.90
16247;DHT22;8231;50.866;7.944;2022-09-11T00:33:57;15.10;99.90
16247;DHT22;8231;50.866;7.944;2022-09-11T00:36:27;15.00;99.90
16247;DHT22;8231;50.866;7.944;2022-09-11T00:38:58;15.00;99.90
16247;DHT22;8231;50.866;7.944;2022-09-11T00:41:29;15.00;99.90
16247;DHT22;8231;50.866;7.944;2022-09-11T00:44:00;14.90;99.90
16247;DHT22;8231;50.866;7.944;2022-09-11T00:46:34;14.90;99.90
16247;DHT22;8231;50.866;7.944;2022-09-11T00:49:16;14.70;99.90
16247;DHT22;8231;50.866;7.944;2022-09-11T00:51:51;14.70;99.90
16247;DHT22;8231;50.866;7.944;2022-09-11T00:54:26;14.50;99.90
16247;DHT22;8231;50.866;7.944;2022-09-11T00:56:56;14.50;99.90
16247;DHT22;8231;50.866;7.944;2022-09-11T00:59:27;14.40;99.90
16247;DHT22;8231;50.866;7.944;2022-09-11T01:01:56;14.40;99.90
16247;DHT22;8231;50.866;7.944;2022-09-11T01:04:25;14.30;99.90
16247;DHT22;8231;50.866;7.944;2022-09-11T01:06:55;14.20;99.90
16247;DHT22;8231;50.866;7.944;2022-09-11T01:09:26;14.10;99.90
16247;DHT22;8231;50.866;7.944;2022-09-11T01:12:01;14.00;99.90
16247;DHT22;8231;50.866;7.944;2022-09-11T01:14:40;14.00;99.90
16247;DHT22;8231;50.866;7.944;2022-09-11T01:17:22;13.90;99.90
16247;DHT22;8231;50.866;7.944;2022-09-11T01:23:18;13.80;99.90
16247;DHT22;8231;50.866;7.944;2022-09-11T01:26:11;13.70;99.90
16247;DHT22;8231;50.866;7.944;2022-09-11T01:28:51;13.60;99.90
16247;DHT22;8231;50.866;7.944;2022-09-11T01:31:25;13.60;99.90
16247;DHT22;8231;50.866;7.944;2022-09-11T01:33:59;13.60;99.90
16247;DHT22;8231;50.866;7.944;2022-09-11T01:36:32;13.50;99.90
16247;DHT22;8231;50.866;7.944;2022-09-11T01:39:03;13.50;99.90
16247;DHT22;8231;50.866;7.944;2022-09-11T01:41:36;13.50;99.90
16247;DHT22;8231;50.866;7.944;2022-09-11T01:44:09;13.70;99.90
16247;DHT22;8231;50.866;7.944;2022-09-11T01:46:43;13.70;99.90
16247;DHT22;8231;50.866;7.944;2022-09-11T01:49:15;13.70;99.90
16247;DHT22;8231;50.866;7.944;2022-09-11T01:51:45;13.70;99.90
16247;DHT22;8231;50.866;7.944;2022-09-11T01:54:17;13.70;99.90
16247;DHT22;8231;50.866;7.944;2022-09-11T01:56:50;13.80;99.90
16247;DHT22;8231;50.866;7.944;2022-09-11T01:59:25;13.80;99.90
16247;DHT22;8231;50.866;7.944;2022-09-11T02:02:00;13.80;99.90
16247;DHT22;8231;50.866;7.944;2022-09-11T02:04:32;13.90;99.90
16247;DHT22;8231;50.866;7.944;2022-09-11T02:07:06;14.00;99.90
16247;DHT22;8231;50.866;7.944;2022-09-11T02:09:40;14.10;99.90
16247;DHT22;8231;50.866;7.944;2022-09-11T02:12:13;14.00;99.90
16247;DHT22;8231;50.866;7.944;2022-09-11T02:14:47;14.00;99.90
16247;DHT22;8231;50.866;7.944;2022-09-11T02:17:23;14.10;99.90
16247;DHT22;8231;50.866;7.944;2022-09-11T02:19:56;14.20;99.90
16247;DHT22;8231;50.866;7.944;2022-09-11T02:22:26;14.20;99.90
16247;DHT22;8231;50.866;7.944;2022-09-11T02:24:54;14.30;99.90
16247;DHT22;8231;50.866;7.944;2022-09-11T02:27:25;14.30;99.90
16247;DHT22;8231;50.866;7.944;2022-09-11T02:29:56;14.40;99.90
16247;DHT22;8231;50.866;7.944;2022-09-11T02:32:26;14.40;99.90
16247;DHT22;8231;50.866;7.944;2022-09-11T02:34:56;14.40;99.90
16247;DHT22;8231;50.866;7.944;2022-09-11T02:37:32;14.40;99.90
16247;DHT22;8231;50.866;7.944;2022-09-11T02:40:13;14.50;99.90
16247;DHT22;8231;50.866;7.944;2022-09-11T02:42:59;14.50;99.90
16247;DHT22;8231;50.866;7.944;2022-09-11T02:45:41;14.50;99.90
16247;DHT22;8231;50.866;7.944;2022-09-11T02:48:23;14.50;99.90
16247;DHT22;8231;50.866;7.944;2022-09-11T02:50:58;14.50;99.90
16247;DHT22;8231;50.866;7.944;2022-09-11T02:53:40;14.40;99.90
16247;DHT22;8231;50.866;7.944;2022-09-11T02:56:13;14.50;99.90
16247;DHT22;8231;50.866;7.944;2022-09-11T02:58:44;14.50;99.90
16247;DHT22;8231;50.866;7.944;2022-09-11T03:01:17;14.50;99.90
16247;DHT22;8231;50.866;7.944;2022-09-11T03:03:46;14.50;99.90
16247;DHT22;8231;50.866;7.944;2022-09-11T03:06:17;14.50;99.90
16247;DHT22;8231;50.866;7.944;2022-09-11T03:08:46;14.50;99.90
16247;DHT22;8231;50.866;7.944;2022-09-11T03:11:16;14.50;99.90
16247;DHT22;8231;50.866;7.944;2022-09-11T03:13:47;14.60;99.90
16247;DHT22;8231;50.866;7.944;2022-09-11T03:16:17;14.60;99.90
16247;DHT22;8231;50.866;7.944;2022-09-11T03:18:46;14.50;99.90
16247;DHT22;8231;50.866;7.944;2022-09-11T03:21:14;14.50;99.90
16247;DHT22;8231;50.866;7.944;2022-09-11T03:23:42;14.50;99.90
16247;DHT22;8231;50.866;7.944;2022-09-11T03:26:10;14.50;99.90
16247;DHT22;8231;50.866;7.944;2022-09-11T03:28:38;14.40;99.90
16247;DHT22;8231;50.866;7.944;2022-09-11T03:31:07;14.40;99.90
16247;DHT22;8231;50.866;7.944;2022-09-11T03:33:37;14.40;99.90
16247;DHT22;8231;50.866;7.944;2022-09-11T03:36:09;14.40;99.90
16247;DHT22;8231;50.866;7.944;2022-09-11T03:38:37;14.40;99.90
16247;DHT22;8231;50.866;7.944;2022-09-11T03:41:06;14.40;99.90
16247;DHT22;8231;50.866;7.944;2022-09-11T03:43:35;14.30;99.90
16247;DHT22;8231;50.866;7.944;2022-09-11T03:46:04;14.30;99.90
16247;DHT22;8231;50.866;7.944;2022-09-11T03:48:34;14.30;99.90
16247;DHT22;8231;50.866;7.944;2022-09-11T03:51:04;14.40;99.90
16247;DHT22;8231;50.866;7.944;2022-09-11T03:53:32;14.30;99.90
16247;DHT22;8231;50.866;7.944;2022-09-11T03:56:01;14.30;99.90
16247;DHT22;8231;50.866;7.944;2022-09-11T03:58:38;14.30;99.90
16247;DHT22;8231;50.866;7.944;2022-09-11T04:01:10;14.30;99.90
16247;DHT22;8231;50.866;7.944;2022-09-11T04:03:41;14.30;99.90
16247;DHT22;8231;50.866;7.944;2022-09-11T04:06:18;14.30;99.90
16247;DHT22;8231;50.866;7.944;2022-09-11T04:08:46;14.20;99.90
16247;DHT22;8231;50.866;7.944;2022-09-11T04:11:15;14.30;99.90
16247;DHT22;8231;50.866;7.944;2022-09-11T04:13:44;14.30;99.90
16247;DHT22;8231;50.866;7.944;2022-09-11T04:16:15;14.40;99.90
16247;DHT22;8231;50.866;7.944;2022-09-11T04:18:47;14.30;99.90
16247;DHT22;8231;50.866;7.944;2022-09-11T04:21:18;14.30;99.90
16247;DHT22;8231;50.866;7.944;2022-09-11T04:23:52;14.30;99.90
16247;DHT22;8231;50.866;7.944;2022-09-11T04:26:25;14.30;99.90
16247;DHT22;8231;50.866;7.944;2022-09-11T04:28:59;14.40;99.90
16247;DHT22;8231;50.866;7.944;2022-09-11T04:31:27;14.60;99.90
16247;DHT22;8231;50.866;7.944;2022-09-11T04:33:56;14.50;99.90
16247;DHT22;8231;50.866;7.944;2022-09-11T04:36:29;14.50;99.90
16247;DHT22;8231;50.866;7.944;2022-09-11T04:38:59;14.50;99.90
16247;DHT22;8231;50.866;7.944;2022-09-11T04:41:28;14.60;99.90
16247;DHT22;8231;50.866;7.944;2022-09-11T04:44:00;14.60;99.90
16247;DHT22;8231;50.866;7.944;2022-09-11T04:46:34;14.60;99.90
16247;DHT22;8231;50.866;7.944;2022-09-11T04:49:05;14.60;99.90
16247;DHT22;8231;50.866;7.944;2022-09-11T04:51:35;14.60;99.90
16247;DHT22;8231;50.866;7.944;2022-09-11T04:54:06;14.70;99.90
16247;DHT22;8231;50.866;7.944;2022-09-11T04:56:36;14.70;99.90
16247;DHT22;8231;50.866;7.944;2022-09-11T04:59:09;14.70;99.90
16247;DHT22;8231;50.866;7.944;2022-09-11T05:01:42;14.80;99.90
16247;DHT22;8231;50.866;7.944;2022-09-11T05:04:11;14.70;99.90
16247;DHT22;8231;50.866;7.944;2022-09-11T05:06:42;14.80;99.90
16247;DHT22;8231;50.866;7.944;2022-09-11T05:09:16;14.80;99.90
16247;DHT22;8231;50.866;7.944;2022-09-11T05:11:46;14.80;99.90
16247;DHT22;8231;50.866;7.944;2022-09-11T05:14:15;14.80;99.90
16247;DHT22;8231;50.866;7.944;2022-09-11T05:16:46;14.80;99.90
16247;DHT22;8231;50.866;7.944;2022-09-11T05:19:16;14.80;99.90
16247;DHT22;8231;50.866;7.944;2022-09-11T05:21:47;14.80;99.90
16247;DHT22;8231;50.866;7.944;2022-09-11T05:24:15;14.90;99.90
16247;DHT22;8231;50.866;7.944;2022-09-11T05:26:43;14.90;99.90
16247;DHT22;8231;50.866;7.944;2022-09-11T05:29:13;14.90;99.90
16247;DHT22;8231;50.866;7.944;2022-09-11T05:31:50;14.90;99.90
16247;DHT22;8231;50.866;7.944;2022-09-11T05:34:20;15.00;99.90
16247;DHT22;8231;50.866;7.944;2022-09-11T05:36:51;15.00;99.90
16247;DHT22;8231;50.866;7.944;2022-09-11T05:39:19;15.00;99.90
16247;DHT22;8231;50.866;7.944;2022-09-11T05:41:49;15.00;99.90
16247;DHT22;8231;50.866;7.944;2022-09-11T05:44:18;15.10;99.90
16247;DHT22;8231;50.866;7.944;2022-09-11T05:46:46;15.10;99.90
16247;DHT22;8231;50.866;7.944;2022-09-11T05:49:15;15.10;99.90
16247;DHT22;8231;50.866;7.944;2022-09-11T05:51:43;15.10;99.90
16247;DHT22;8231;50.866;7.944;2022-09-11T05:54:12;15.20;99.90
16247;DHT22;8231;50.866;7.944;2022-09-11T05:56:41;15.20;99.90
16247;DHT22;8231;50.866;7.944;2022-09-11T05:59:15;15.30;99.90
16247;DHT22;8231;50.866;7.944;2022-09-11T06:01:46;15.40;99.90
16247;DHT22;8231;50.866;7.944;2022-09-11T06:04:29;15.50;99.90
16247;DHT22;8231;50.866;7.944;2022-09-11T06:06:58;15.50;99.90
16247;DHT22;8231;50.866;7.944;2022-09-11T06:09:29;15.60;99.90
16247;DHT22;8231;50.866;7.944;2022-09-11T06:11:57;15.60;99.90
16247;DHT22;8231;50.866;7.944;2022-09-11T06:14:27;15.60;99.90
16247;DHT22;8231;50.866;7.944;2022-09-11T06:16:55;15.70;99.90
16247;DHT22;8231;50.866;7.944;2022-09-11T06:19:25;15.70;99.90
16247;DHT22;8231;50.866;7.944;2022-09-11T06:21:54;15.70;99.90
16247;DHT22;8231;50.866;7.944;2022-09-11T06:24:29;15.70;99.90
16247;DHT22;8231;50.866;7.944;2022-09-11T06:26:57;15.70;99.90
16247;DHT22;8231;50.866;7.944;2022-09-11T06:29:27;15.70;99.90
16247;DHT22;8231;50.866;7.944;2022-09-11T06:31:59;15.80;99.90
16247;DHT22;8231;50.866;7.944;2022-09-11T06:34:29;16.10;99.90
16247;DHT22;8231;50.866;7.944;2022-09-11T06:37:00;16.70;99.90
16247;DHT22;8231;50.866;7.944;2022-09-11T06:39:31;17.20;99.90
16247;DHT22;8231;50.866;7.944;2022-09-11T06:42:00;17.40;99.90
16247;DHT22;8231;50.866;7.944;2022-09-11T06:44:33;17.50;99.90
16247;DHT22;8231;50.866;7.944;2022-09-11T06:47:02;17.40;99.90
16247;DHT22;8231;50.866;7.944;2022-09-11T06:49:33;17.20;99.90
16247;DHT22;8231;50.866;7.944;2022-09-11T06:52:24;17.20;99.90
16247;DHT22;8231;50.866;7.944;2022-09-11T06:55:06;17.20;99.90
16247;DHT22;8231;50.866;7.944;2022-09-11T06:57:42;17.00;99.90
16247;DHT22;8231;50.866;7.944;2022-09-11T07:00:14;17.00;99.90
16247;DHT22;8231;50.866;7.944;2022-09-11T07:02:43;17.40;99.90
16247;DHT22;8231;50.866;7.944;2022-09-11T07:05:12;18.00;99.90
16247;DHT22;8231;50.866;7.944;2022-09-11T07:07:44;18.50;99.90
16247;DHT22;8231;50.866;7.944;2022-09-11T07:10:16;19.00;99.90
16247;DHT22;8231;50.866;7.944;2022-09-11T07:12:52;19.40;99.90
16247;DHT22;8231;50.866;7.944;2022-09-11T07:15:21;19.60;99.90
16247;DHT22;8231;50.866;7.944;2022-09-11T07:17:49;19.60;99.90
16247;DHT22;8231;50.866;7.944;2022-09-11T07:20:18;19.60;99.90
16247;DHT22;8231;50.866;7.944;2022-09-11T07:22:46;19.10;99.90
16247;DHT22;8231;50.866;7.944;2022-09-11T07:25:17;18.80;99.90
16247;DHT22;8231;50.866;7.944;2022-09-11T07:27:46;18.60;99.90
16247;DHT22;8231;50.866;7.944;2022-09-11T07:30:14;18.50;99.90
16247;DHT22;8231;50.866;7.944;2022-09-11T07:32:46;18.30;99.90
16247;DHT22;8231;50.866;7.944;2022-09-11T07:35:15;18.30;99.90
16247;DHT22;8231;50.866;7.944;2022-09-11T07:37:49;18.30;99.90
16247;DHT22;8231;50.866;7.944;2022-09-11T07:40:23;18.40;99.90
16247;DHT22;8231;50.866;7.944;2022-09-11T07:42:51;18.70;99.90
16247;DHT22;8231;50.866;7.944;2022-09-11T07:45:20;18.60;99.90
16247;DHT22;8231;50.866;7.944;2022-09-11T07:47:49;18.70;99.90
16247;DHT22;8231;50.866;7.944;2022-09-11T07:50:20;19.20;99.90
16247;DHT22;8231;50.866;7.944;2022-09-11T07:52:50;20.10;99.90
16247;DHT22;8231;50.866;7.944;2022-09-11T07:55:19;20.80;99.90
16247;DHT22;8231;50.866;7.944;2022-09-11T07:57:49;20.90;99.90
16247;DHT22;8231;50.866;7.944;2022-09-11T08:00:22;21.40;99.90
16247;DHT22;8231;50.866;7.944;2022-09-11T08:02:59;21.60;99.90
16247;DHT22;8231;50.866;7.944;2022-09-11T08:05:32;21.40;99.90
16247;DHT22;8231;50.866;7.944;2022-09-11T08:08:00;21.20;99.90
16247;DHT22;8231;50.866;7.944;2022-09-11T08:10:30;20.90;99.90
16247;DHT22;8231;50.866;7.944;2022-09-11T08:13:00;20.50;99.90
16247;DHT22;8231;50.866;7.944;2022-09-11T08:15:36;21.10;99.90
16247;DHT22;8231;50.866;7.944;2022-09-11T08:18:06;22.20;99.90
16247;DHT22;8231;50.866;7.944;2022-09-11T08:20:34;23.10;99.90
16247;DHT22;8231;50.866;7.944;2022-09-11T08:23:02;23.50;99.90
16247;DHT22;8231;50.866;7.944;2022-09-11T08:25:30;23.70;99.90
16247;DHT22;8231;50.866;7.944;2022-09-11T08:28:00;24.10;99.90
16247;DHT22;8231;50.866;7.944;2022-09-11T08:30:30;24.30;99.90
16247;DHT22;8231;50.866;7.944;2022-09-11T08:32:58;24.10;99.90
16247;DHT22;8231;50.866;7.944;2022-09-11T08:35:27;23.40;99.90
16247;DHT22;8231;50.866;7.944;2022-09-11T08:37:56;22.70;99.90
16247;DHT22;8231;50.866;7.944;2022-09-11T08:40:26;22.20;99.90
16247;DHT22;8231;50.866;7.944;2022-09-11T08:43:01;22.10;99.90
16247;DHT22;8231;50.866;7.944;2022-09-11T08:45:32;21.90;99.90
16247;DHT22;8231;50.866;7.944;2022-09-11T08:48:03;21.80;99.90
16247;DHT22;8231;50.866;7.944;2022-09-11T08:50:35;21.70;99.90
16247;DHT22;8231;50.866;7.944;2022-09-11T08:53:09;21.50;99.90
16247;DHT22;8231;50.866;7.944;2022-09-11T08:55:44;21.40;99.90
16247;DHT22;8231;50.866;7.944;2022-09-11T08:58:23;21.50;99.90
16247;DHT22;8231;50.866;7.944;2022-09-11T09:01:03;22.00;99.90
16247;DHT22;8231;50.866;7.944;2022-09-11T09:03:48;22.10;99.90
16247;DHT22;8231;50.866;7.944;2022-09-11T09:06:38;22.00;99.90
16247;DHT22;8231;50.866;7.944;2022-09-11T09:09:15;22.30;99.90
16247;DHT22;8231;50.866;7.944;2022-09-11T09:11:50;22.20;99.90
16247;DHT22;8231;50.866;7.944;2022-09-11T09:14:42;22.10;99.90
16247;DHT22;8231;50.866;7.944;2022-09-11T09:17:17;22.10;99.90
16247;DHT22;8231;50.866;7.944;2022-09-11T09:19:50;21.90;99.90
16247;DHT22;8231;50.866;7.944;2022-09-11T09:22:26;21.80;99.90
16247;DHT22;8231;50.866;7.944;2022-09-11T09:25:00;21.80;99.90
16247;DHT22;8231;50.866;7.944;2022-09-11T09:27:34;21.80;99.90
16247;DHT22;8231;50.866;7.944;2022-09-11T09:30:11;21.70;99.90
16247;DHT22;8231;50.866;7.944;2022-09-11T09:32:44;21.90;99.90
16247;DHT22;8231;50.866;7.944;2022-09-11T09:35:18;22.10;99.90
16247;DHT22;8231;50.866;7.944;2022-09-11T09:37:49;22.00;99.90
16247;DHT22;8231;50.866;7.944;2022-09-11T09:40:17;22.20;99.90
16247;DHT22;8231;50.866;7.944;2022-09-11T09:45:50;22.60;99.90
16247;DHT22;8231;50.866;7.944;2022-09-11T09:48:22;22.60;99.90
16247;DHT22;8231;50.866;7.944;2022-09-11T09:50:51;22.90;99.90
16247;DHT22;8231;50.866;7.944;2022-09-11T09:53:27;23.00;99.90
16247;DHT22;8231;50.866;7.944;2022-09-11T09:55:58;22.90;99.90
16247;DHT22;8231;50.866;7.944;2022-09-11T09:58:30;22.60;99.90
16247;DHT22;8231;50.866;7.944;2022-09-11T10:01:00;22.40;99.90
16247;DHT22;8231;50.866;7.944;2022-09-11T10:03:29;22.20;99.90
16247;DHT22;8231;50.866;7.944;2022-09-11T10:05:57;22.10;99.90
16247;DHT22;8231;50.866;7.944;2022-09-11T10:08:30;22.00;99.90
16247;DHT22;8231;50.866;7.944;2022-09-11T10:11:00;22.00;99.90
16247;DHT22;8231;50.866;7.944;2022-09-11T10:13:31;22.10;99.90
16247;DHT22;8231;50.866;7.944;2022-09-11T10:16:02;21.80;99.90
16247;DHT22;8231;50.866;7.944;2022-09-11T10:18:34;21.70;99.90
16247;DHT22;8231;50.866;7.944;2022-09-11T10:21:14;21.70;99.90
16247;DHT22;8231;50.866;7.944;2022-09-11T10:23:45;21.90;99.90
16247;DHT22;8231;50.866;7.944;2022-09-11T10:26:15;22.00;99.90
16247;DHT22;8231;50.866;7.944;2022-09-11T10:28:44;21.90;99.90
16247;DHT22;8231;50.866;7.944;2022-09-11T10:31:15;21.90;99.90
16247;DHT22;8231;50.866;7.944;2022-09-11T10:33:47;21.90;99.90
16247;DHT22;8231;50.866;7.944;2022-09-11T10:36:22;21.90;99.90
16247;DHT22;8231;50.866;7.944;2022-09-11T10:38:50;22.10;99.90
16247;DHT22;8231;50.866;7.944;2022-09-11T10:41:20;22.20;99.90
16247;DHT22;8231;50.866;7.944;2022-09-11T10:43:53;22.20;99.90
16247;DHT22;8231;50.866;7.944;2022-09-11T10:46:28;21.90;99.90
16247;DHT22;8231;50.866;7.944;2022-09-11T10:49:05;21.90;99.90
16247;DHT22;8231;50.866;7.944;2022-09-11T10:51:36;21.90;99.90
16247;DHT22;8231;50.866;7.944;2022-09-11T10:54:12;22.10;99.90
16247;DHT22;8231;50.866;7.944;2022-09-11T10:56:49;21.80;99.90
16247;DHT22;8231;50.866;7.944;2022-09-11T10:59:25;21.60;99.90
16247;DHT22;8231;50.866;7.944;2022-09-11T11:01:59;21.30;99.90
16247;DHT22;8231;50.866;7.944;2022-09-11T11:04:31;21.20;99.90
16247;DHT22;8231;50.866;7.944;2022-09-11T11:07:05;21.20;99.90
16247;DHT22;8231;50.866;7.944;2022-09-11T11:09:43;21.00;99.90
16247;DHT22;8231;50.866;7.944;2022-09-11T11:12:26;21.10;99.90
16247;DHT22;8231;50.866;7.944;2022-09-11T11:18:21;21.80;99.90
16247;DHT22;8231;50.866;7.944;2022-09-11T11:20:58;21.80;99.90
16247;DHT22;8231;50.866;7.944;2022-09-11T11:23:48;21.90;99.90
16247;DHT22;8231;50.866;7.944;2022-09-11T11:26:28;22.30;99.90
16247;DHT22;8231;50.866;7.944;2022-09-11T11:29:20;22.90;99.90
16247;DHT22;8231;50.866;7.944;2022-09-11T11:32:00;22.90;99.90
16247;DHT22;8231;50.866;7.944;2022-09-11T11:34:49;22.70;99.90
16247;DHT22;8231;50.866;7.944;2022-09-11T11:37:24;22.50;99.90
16247;DHT22;8231;50.866;7.944;2022-09-11T11:40:00;22.40;99.90
16247;DHT22;8231;50.866;7.944;2022-09-11T11:42:33;22.30;99.90
16247;DHT22;8231;50.866;7.944;2022-09-11T11:45:07;22.20;99.90
16247;DHT22;8231;50.866;7.944;2022-09-11T11:47:38;22.30;99.90
16247;DHT22;8231;50.866;7.944;2022-09-11T11:50:25;22.60;99.90
16247;DHT22;8231;50.866;7.944;2022-09-11T11:53:02;22.70;99.90
16247;DHT22;8231;50.866;7.944;2022-09-11T11:55:42;23.30;99.90
16247;DHT22;8231;50.866;7.944;2022-09-11T11:58:18;24.10;99.90
16247;DHT22;8231;50.866;7.944;2022-09-11T12:00:54;24.80;99.90
16247;DHT22;8231;50.866;7.944;2022-09-11T12:03:28;25.60;99.90
16247;DHT22;8231;50.866;7.944;2022-09-11T12:05:57;26.70;99.90
16247;DHT22;8231;50.866;7.944;2022-09-11T12:08:26;27.30;99.90
16247;DHT22;8231;50.866;7.944;2022-09-11T12:10:56;27.90;97.50
16247;DHT22;8231;50.866;7.944;2022-09-11T12:13:29;27.90;97.80
16247;DHT22;8231;50.866;7.944;2022-09-11T12:16:10;28.80;96.10
16247;DHT22;8231;50.866;7.944;2022-09-11T12:18:41;28.80;93.30
16247;DHT22;8231;50.866;7.944;2022-09-11T12:24:51;30.50;90.30
16247;DHT22;8231;50.866;7.944;2022-09-11T12:27:50;30.50;88.80
16247;DHT22;8231;50.866;7.944;2022-09-11T12:30:21;29.30;90.50
16247;DHT22;8231;50.866;7.944;2022-09-11T12:32:51;27.80;92.70
16247;DHT22;8231;50.866;7.944;2022-09-11T12:35:28;27.50;93.90
16247;DHT22;8231;50.866;7.944;2022-09-11T12:38:11;28.60;92.30
16247;DHT22;8231;50.866;7.944;2022-09-11T12:40:49;29.00;91.20
16247;DHT22;8231;50.866;7.944;2022-09-11T12:43:44;30.20;88.10
16247;DHT22;8231;50.866;7.944;2022-09-11T12:49:16;32.30;79.50
16247;DHT22;8231;50.866;7.944;2022-09-11T12:51:53;31.90;83.10
16247;DHT22;8231;50.866;7.944;2022-09-11T12:54:25;31.60;79.50
16247;DHT22;8231;50.866;7.944;2022-09-11T12:56:59;32.50;79.60
16247;DHT22;8231;50.866;7.944;2022-09-11T12:59:31;33.30;76.60
16247;DHT22;8231;50.866;7.944;2022-09-11T13:02:01;33.00;74.80
16247;DHT22;8231;50.866;7.944;2022-09-11T13:04:32;33.00;73.50
16247;DHT22;8231;50.866;7.944;2022-09-11T13:07:02;33.20;73.40
16247;DHT22;8231;50.866;7.944;2022-09-11T13:09:34;33.40;69.10
16247;DHT22;8231;50.866;7.944;2022-09-11T13:12:46;33.50;67.50
16247;DHT22;8231;50.866;7.944;2022-09-11T13:15:35;32.70;67.20
16247;DHT22;8231;50.866;7.944;2022-09-11T13:18:29;32.20;70.20
16247;DHT22;8231;50.866;7.944;2022-09-11T13:21:11;31.70;67.70
16247;DHT22;8231;50.866;7.944;2022-09-11T13:23:40;31.10;70.70
16247;DHT22;8231;50.866;7.944;2022-09-11T13:26:16;30.70;72.00
16247;DHT22;8231;50.866;7.944;2022-09-11T13:28:49;30.40;72.90
16247;DHT22;8231;50.866;7.944;2022-09-11T13:31:19;30.40;73.60
16247;DHT22;8231;50.866;7.944;2022-09-11T13:33:52;30.20;73.30
16247;DHT22;8231;50.866;7.944;2022-09-11T13:36:22;29.80;75.50
16247;DHT22;8231;50.866;7.944;2022-09-11T13:38:54;29.40;76.40
16247;DHT22;8231;50.866;7.944;2022-09-11T13:41:27;29.40;77.50
16247;DHT22;8231;50.866;7.944;2022-09-11T13:43:57;29.20;77.60
16247;DHT22;8231;50.866;7.944;2022-09-11T13:46:27;28.60;76.80
16247;DHT22;8231;50.866;7.944;2022-09-11T13:49:11;28.20;79.40
16247;DHT22;8231;50.866;7.944;2022-09-11T13:51:43;28.20;80.20
16247;DHT22;8231;50.866;7.944;2022-09-11T13:54:14;27.40;81.60
16247;DHT22;8231;50.866;7.944;2022-09-11T13:56:45;26.70;83.10
16247;DHT22;8231;50.866;7.944;2022-09-11T13:59:37;27.00;83.80
16247;DHT22;8231;50.866;7.944;2022-09-11T14:05:13;27.30;82.10
16247;DHT22;8231;50.866;7.944;2022-09-11T14:07:52;26.70;85.30
16247;DHT22;8231;50.866;7.944;2022-09-11T14:10:28;26.70;85.70
16247;DHT22;8231;50.866;7.944;2022-09-11T14:13:02;26.50;87.20
16247;DHT22;8231;50.866;7.944;2022-09-11T14:15:37;26.30;84.80
16247;DHT22;8231;50.866;7.944;2022-09-11T14:18:12;26.10;86.00
16247;DHT22;8231;50.866;7.944;2022-09-11T14:20:42;26.00;88.60
16247;DHT22;8231;50.866;7.944;2022-09-11T14:23:17;26.00;86.20
16247;DHT22;8231;50.866;7.944;2022-09-11T14:26:07;25.50;85.30
16247;DHT22;8231;50.866;7.944;2022-09-11T14:28:45;25.60;85.70
16247;DHT22;8231;50.866;7.944;2022-09-11T14:31:34;25.90;83.50
16247;DHT22;8231;50.866;7.944;2022-09-11T14:34:15;25.70;85.50
16247;DHT22;8231;50.866;7.944;2022-09-11T14:36:47;25.70;83.80
16247;DHT22;8231;50.866;7.944;2022-09-11T14:39:23;25.60;84.10
16247;DHT22;8231;50.866;7.944;2022-09-11T14:41:52;25.70;86.20
16247;DHT22;8231;50.866;7.944;2022-09-11T14:44:23;25.70;86.60
16247;DHT22;8231;50.866;7.944;2022-09-11T14:46:53;25.60;85.80
16247;DHT22;8231;50.866;7.944;2022-09-11T14:49:23;24.90;88.70
16247;DHT22;8231;50.866;7.944;2022-09-11T14:51:54;24.60;88.90
16247;DHT22;8231;50.866;7.944;2022-09-11T14:54:25;24.30;90.00
16247;DHT22;8231;50.866;7.944;2022-09-11T14:56:53;23.90;90.50
16247;DHT22;8231;50.866;7.944;2022-09-11T14:59:23;23.80;91.70
16247;DHT22;8231;50.866;7.944;2022-09-11T15:01:51;23.70;92.00
16247;DHT22;8231;50.866;7.944;2022-09-11T15:04:21;23.60;92.10
16247;DHT22;8231;50.866;7.944;2022-09-11T15:06:51;23.60;92.50
16247;DHT22;8231;50.866;7.944;2022-09-11T15:09:21;23.60;92.40
16247;DHT22;8231;50.866;7.944;2022-09-11T15:11:49;23.30;92.50
16247;DHT22;8231;50.866;7.944;2022-09-11T15:14:19;23.30;92.80
16247;DHT22;8231;50.866;7.944;2022-09-11T15:17:11;23.30;92.70
16247;DHT22;8231;50.866;7.944;2022-09-11T15:19:40;23.30;93.20
16247;DHT22;8231;50.866;7.944;2022-09-11T15:22:11;23.30;92.80
16247;DHT22;8231;50.866;7.944;2022-09-11T15:24:40;23.30;93.10
16247;DHT22;8231;50.866;7.944;2022-09-11T15:27:08;23.30;93.40
16247;DHT22;8231;50.866;7.944;2022-09-11T15:29:36;23.30;93.40
16247;DHT22;8231;50.866;7.944;2022-09-11T15:32:05;23.30;93.40
16247;DHT22;8231;50.866;7.944;2022-09-11T15:34:37;23.20;94.00
16247;DHT22;8231;50.866;7.944;2022-09-11T15:37:07;23.10;93.70
16247;DHT22;8231;50.866;7.944;2022-09-11T15:39:36;23.00;93.90
16247;DHT22;8231;50.866;7.944;2022-09-11T15:42:05;23.00;93.70
16247;DHT22;8231;50.866;7.944;2022-09-11T15:44:35;22.80;94.30
16247;DHT22;8231;50.866;7.944;2022-09-11T15:47:03;22.90;94.60
16247;DHT22;8231;50.866;7.944;2022-09-11T15:49:32;22.90;94.70
16247;DHT22;8231;50.866;7.944;2022-09-11T15:52:07;22.70;94.80
16247;DHT22;8231;50.866;7.944;2022-09-11T15:54:35;22.80;95.40
16247;DHT22;8231;50.866;7.944;2022-09-11T15:57:04;22.70;95.60
16247;DHT22;8231;50.866;7.944;2022-09-11T15:59:32;22.70;95.60
16247;DHT22;8231;50.866;7.944;2022-09-11T16:02:00;22.70;96.90
16247;DHT22;8231;50.866;7.944;2022-09-11T16:04:29;22.70;97.20
16247;DHT22;8231;50.866;7.944;2022-09-11T16:06:58;22.60;97.20
16247;DHT22;8231;50.866;7.944;2022-09-11T16:09:29;22.50;97.10
16247;DHT22;8231;50.866;7.944;2022-09-11T16:11:58;22.40;97.30
16247;DHT22;8231;50.866;7.944;2022-09-11T16:14:29;22.20;97.50
16247;DHT22;8231;50.866;7.944;2022-09-11T16:16:59;22.20;97.80
16247;DHT22;8231;50.866;7.944;2022-09-11T16:19:29;22.20;97.60
16247;DHT22;8231;50.866;7.944;2022-09-11T16:21:59;22.20;98.30
16247;DHT22;8231;50.866;7.944;2022-09-11T16:24:31;22.20;97.70
16247;DHT22;8231;50.866;7.944;2022-09-11T16:27:05;22.10;97.70
16247;DHT22;8231;50.866;7.944;2022-09-11T16:29:34;22.00;98.10
16247;DHT22;8231;50.866;7.944;2022-09-11T16:32:23;21.70;98.10
16247;DHT22;8231;50.866;7.944;2022-09-11T16:35:03;21.60;98.50
16247;DHT22;8231;50.866;7.944;2022-09-11T16:37:32;21.50;98.70
16247;DHT22;8231;50.866;7.944;2022-09-11T16:40:03;21.40;99.40